Time;durP1;ratioP1;P1;durP2;ratioP2;P2;SDS_P1;SDS_P2;PMS_P1;PMS_P2;Temp;Humidity;BMP_temperature;BMP_pressure;BME280_temperature;BME280_humidity;BME280_pressure;Samples;Min_cycle;Max_cycle;Signal;HPM_P1;HPM_P2
2023/11/17 00:00:38;;;;;;;103.65;7.38;;;;;;;;;;5003178;28;20030;-59
2023/11/17 00:03:03;;;;;;;120.63;8.03;;;;;;;;;;5005898;28;20349;-58
2023/11/17 00:05:29;;;;;;;86.97;6.13;;;;;;;;;;5004888;28;20338;-59
2023/11/17 00:07:54;;;;;;;97.47;6.35;;;;;;;;;;5004877;28;20010;-59
2023/11/17 00:10:20;;;;;;;124.68;6.95;;;;;;;;;;5002237;28;20032;-58
2023/11/17 00:12:45;;;;;;;92.05;5.90;;;;;;;;;;5002686;28;20446;-59
2023/11/17 00:15:14;;;;;;;105.78;6.70;;;;;;;;;;5003407;28;20040;-58
2023/11/17 00:17:39;;;;;;;111.50;6.72;;;;;;;;;;5003183;28;20025;-59
2023/11/17 00:20:06;;;;;;;133.73;8.80;;;;;;;;;;5003065;28;20574;-59
2023/11/17 00:22:31;;;;;;;96.45;6.00;;;;;;;;;;5003837;28;20042;-58
2023/11/17 00:24:56;;;;;;;113.47;6.75;;;;;;;;;;5003636;28;20488;-59
2023/11/17 00:27:22;;;;;;;69.72;4.93;;;;;;;;;;5000925;28;20034;-59
2023/11/17 00:29:48;;;;;;;85.28;5.50;;;;;;;;;;5004832;28;20113;-58
2023/11/17 00:32:14;;;;;;;166.65;9.70;;;;;;;;;;5001708;28;20060;-59
2023/11/17 00:34:39;;;;;;;84.50;5.32;;;;;;;;;;5003176;28;20444;-58
2023/11/17 00:37:07;;;;;;;117.13;6.93;;;;;;;;;;5002276;28;20029;-59
2023/11/17 00:39:33;;;;;;;106.10;6.78;;;;;;;;;;5003436;28;20013;-57
2023/11/17 00:41:58;;;;;;;111.57;6.68;;;;;;;;;;5003469;28;20488;-58
2023/11/17 00:44:23;;;;;;;76.30;5.80;;;;;;;;;;5005131;28;20380;-59
2023/11/17 00:46:48;;;;;;;98.35;6.47;;;;;;;;;;5002332;28;20088;-59
2023/11/17 00:49:14;;;;;;;157.23;9.85;;;;;;;;;;5002819;28;20436;-59
2023/11/17 00:51:40;;;;;;;100.15;6.43;;;;;;;;;;5003028;28;20040;-58
2023/11/17 00:54:06;;;;;;;101.88;7.05;;;;;;;;;;5004562;28;20662;-58
2023/11/17 00:56:33;;;;;;;101.20;6.53;;;;;;;;;;5005284;28;20624;-58
2023/11/17 00:58:58;;;;;;;69.65;4.93;;;;;;;;;;5007374;28;20378;-58
2023/11/17 01:01:23;;;;;;;81.15;5.65;;;;;;;;;;5005899;28;20744;-59
2023/11/17 01:03:49;;;;;;;103.50;6.50;;;;;;;;;;5006076;28;20429;-58
2023/11/17 01:06:14;;;;;;;126.30;8.50;;;;;;;;;;5005360;28;20120;-58
2023/11/17 01:08:39;;;;;;;83.80;5.50;;;;;;;;;;5009534;28;20053;-58
2023/11/17 01:11:05;;;;;;;104.10;6.50;;;;;;;;;;5007747;28;20037;-58
2023/11/17 01:13:30;;;;;;;67.75;4.75;;;;;;;;;;5009216;28;20260;-58
2023/11/17 01:15:56;;;;;;;77.05;5.28;;;;;;;;;;5006790;28;20167;-58
2023/11/17 01:18:22;;;;;;;179.65;10.57;;;;;;;;;;5005350;28;20036;-59
2023/11/17 01:20:47;;;;;;;96.45;6.32;;;;;;;;;;5008308;28;20389;-58
2023/11/17 01:23:13;;;;;;;152.10;9.77;;;;;;;;;;5004698;28;20057;-59
2023/11/17 01:25:38;;;;;;;87.68;6.82;;;;;;;;;;5006569;28;20069;-58
2023/11/17 01:28:04;;;;;;;96.93;5.95;;;;;;;;;;5007108;28;20095;-59
2023/11/17 01:30:30;;;;;;;81.97;6.22;;;;;;;;;;5006669;28;20034;-58
2023/11/17 01:32:55;;;;;;;103.72;7.30;;;;;;;;;;5006293;28;20277;-59
2023/11/17 01:35:20;;;;;;;127.43;8.20;;;;;;;;;;5007367;28;20418;-59
2023/11/17 01:37:46;;;;;;;80.15;6.20;;;;;;;;;;5009586;28;20528;-58
2023/11/17 01:40:11;;;;;;;93.22;7.05;;;;;;;;;;5010176;28;20014;-59
2023/11/17 01:42:37;;;;;;;119.03;7.78;;;;;;;;;;5006527;28;20370;-59
2023/11/17 01:45:07;;;;;;;88.80;7.18;;;;;;;;;;5010146;28;20273;-59
2023/11/17 01:47:32;;;;;;;83.72;6.57;;;;;;;;;;5007955;28;20036;-58
2023/11/17 01:49:57;;;;;;;116.20;8.27;;;;;;;;;;5006887;28;20030;-58
2023/11/17 01:52:23;;;;;;;98.50;7.55;;;;;;;;;;5007479;28;20132;-59
2023/11/17 01:54:48;;;;;;;88.55;7.03;;;;;;;;;;5008563;28;20137;-58
2023/11/17 01:57:13;;;;;;;126.70;8.82;;;;;;;;;;5003754;28;20112;-58
2023/11/17 01:59:39;;;;;;;59.72;5.65;;;;;;;;;;5006483;28;20539;-59
2023/11/17 02:02:04;;;;;;;88.65;7.07;;;;;;;;;;5006840;28;20044;-59
2023/11/17 02:04:30;;;;;;;112.03;8.80;;;;;;;;;;5005537;28;20429;-58
2023/11/17 02:07:02;;;;;;;94.40;7.53;;;;;;;;;;5008644;28;20252;-59
2023/11/17 02:09:46;;;;;;;82.40;7.03;;;;;;;;;;5008954;28;20288;-59
2023/11/17 02:12:32;;;;;;;101.55;7.47;;;;;;;;;;5006467;28;20117;-59
2023/11/17 02:15:09;;;;;;;104.35;8.18;;;;;;;;;;5006170;28;20006;-59
2023/11/17 02:17:37;;;;;;;83.07;6.85;;;;;;;;;;5007432;28;20041;-58
2023/11/17 02:20:11;;;;;;;94.15;7.45;;;;;;;;;;5008351;28;20622;-58
2023/11/17 02:22:39;;;;;;;96.53;6.40;;;;;;;;;;5006383;28;20551;-59
2023/11/17 02:25:10;;;;;;;115.97;8.90;;;;;;;;;;4991284;28;20010;-58
2023/11/17 02:27:37;;;;;;;88.10;8.15;;;;;;;;;;5007458;28;20038;-58
2023/11/17 02:30:04;;;;;;;106.18;9.35;;;;;;;;;;5004799;28;20531;-58
2023/11/17 02:32:30;;;;;;;88.68;8.25;;;;;;;;;;4984805;28;20277;-59
2023/11/17 02:34:55;;;;;;;77.93;6.63;;;;;;;;;;4989708;28;20097;-59
2023/11/17 02:37:26;;;;;;;145.23;10.70;;;;;;;;;;4985430;28;20448;-59
2023/11/17 02:39:55;;;;;;;94.18;8.35;;;;;;;;;;4987850;28;20036;-59
2023/11/17 02:42:24;;;;;;;124.90;9.98;;;;;;;;;;4986605;28;20532;-59
2023/11/17 02:44:49;;;;;;;105.05;9.02;;;;;;;;;;4989120;28;20080;-58
2023/11/17 02:47:20;;;;;;;103.90;9.73;;;;;;;;;;4987212;28;20406;-58
2023/11/17 02:49:52;;;;;;;91.22;8.88;;;;;;;;;;4988052;28;20034;-58
2023/11/17 02:52:20;;;;;;;108.32;9.38;;;;;;;;;;4985993;28;20081;-58
2023/11/17 02:54:46;;;;;;;95.82;8.57;;;;;;;;;;4988920;28;20208;-59
2023/11/17 02:57:14;;;;;;;153.80;10.10;;;;;;;;;;4986003;28;20125;-57
2023/11/17 02:59:40;;;;;;;99.60;8.45;;;;;;;;;;4986983;28;20022;-58
2023/11/17 03:02:05;;;;;;;84.13;7.95;;;;;;;;;;4985360;28;20030;-56
2023/11/17 03:04:31;;;;;;;116.15;10.52;;;;;;;;;;4983529;28;20034;-57
2023/11/17 03:07:01;;;;;;;83.20;7.60;;;;;;;;;;4985610;28;20030;-56
2023/11/17 03:09:26;;;;;;;89.88;8.60;;;;;;;;;;4985615;28;20034;-56
2023/11/17 03:11:52;;;;;;;145.85;11.15;;;;;;;;;;4999866;28;20453;-57
2023/11/17 03:14:24;;;;;;;115.43;9.60;;;;;;;;;;5004996;28;20033;-57
2023/11/17 03:16:53;;;;;;;78.28;7.93;;;;;;;;;;5005087;28;20119;-57
2023/11/17 03:19:18;;;;;;;141.77;10.18;;;;;;;;;;5005088;28;20540;-57
2023/11/17 03:21:44;;;;;;;102.38;9.13;;;;;;;;;;4992758;28;20033;-57
2023/11/17 03:24:28;;;;;;;79.95;7.22;;;;;;;;;;4985874;28;20039;-57
2023/11/17 03:26:56;;;;;;;92.90;8.57;;;;;;;;;;4985624;28;20478;-57
2023/11/17 03:29:25;;;;;;;123.32;10.60;;;;;;;;;;4985231;28;20036;-57
2023/11/17 03:31:54;;;;;;;97.78;9.05;;;;;;;;;;4985145;28;20042;-57
2023/11/17 03:34:23;;;;;;;119.85;10.07;;;;;;;;;;4987365;28;20010;-56
2023/11/17 03:36:56;;;;;;;91.88;8.07;;;;;;;;;;4987397;28;20129;-57
2023/11/17 03:39:21;;;;;;;127.10;10.07;;;;;;;;;;4988015;28;20088;-57
2023/11/17 03:41:46;;;;;;;87.38;8.27;;;;;;;;;;4986986;28;20038;-57
2023/11/17 03:44:12;;;;;;;124.25;9.05;;;;;;;;;;4986212;28;20472;-59
2023/11/17 03:46:37;;;;;;;86.40;8.05;;;;;;;;;;4984457;28;20034;-57
2023/11/17 03:49:03;;;;;;;77.23;8.00;;;;;;;;;;4986515;28;20053;-57
2023/11/17 03:51:28;;;;;;;105.10;8.45;;;;;;;;;;4985413;28;20388;-57
2023/11/17 03:53:53;;;;;;;104.03;9.05;;;;;;;;;;4985951;28;20302;-57
2023/11/17 03:56:20;;;;;;;116.00;9.95;;;;;;;;;;4983214;28;20410;-57
2023/11/17 03:58:45;;;;;;;87.35;8.57;;;;;;;;;;4987080;28;20524;-57
2023/11/17 04:01:10;;;;;;;156.27;11.50;;;;;;;;;;4985322;28;20038;-58
2023/11/17 04:03:36;;;;;;;87.90;8.43;;;;;;;;;;4984644;28;20053;-57
2023/11/17 04:06:03;;;;;;;101.75;8.95;;;;;;;;;;4987181;28;20030;-57
2023/11/17 04:08:28;;;;;;;152.25;11.15;;;;;;;;;;4983673;28;20602;-57
2023/11/17 04:10:53;;;;;;;86.55;8.13;;;;;;;;;;4986555;28;20626;-58
2023/11/17 04:13:19;;;;;;;110.13;8.98;;;;;;;;;;4982604;28;20493;-58
2023/11/17 04:15:45;;;;;;;107.17;8.67;;;;;;;;;;4984754;28;20484;-57
2023/11/17 04:18:11;;;;;;;72.78;7.53;;;;;;;;;;4985140;28;20333;-57
2023/11/17 04:20:36;;;;;;;70.47;6.65;;;;;;;;;;4985058;28;20039;-56
2023/11/17 04:23:01;;;;;;;111.93;8.50;;;;;;;;;;4985265;28;20022;-57
2023/11/17 04:25:27;;;;;;;127.35;10.20;;;;;;;;;;4985489;28;20099;-56
2023/11/17 04:27:53;;;;;;;91.68;8.38;;;;;;;;;;4988587;28;20528;-57
2023/11/17 04:30:18;;;;;;;161.55;11.07;;;;;;;;;;4982970;28;20024;-57
2023/11/17 04:32:43;;;;;;;89.20;8.80;;;;;;;;;;4984135;28;20030;-57
2023/11/17 04:35:11;;;;;;;101.17;8.33;;;;;;;;;;4987775;28;20018;-57
2023/11/17 04:37:38;;;;;;;96.18;8.20;;;;;;;;;;4986728;28;20273;-57
2023/11/17 04:40:05;;;;;;;122.05;9.82;;;;;;;;;;4983790;28;20010;-57
2023/11/17 04:42:30;;;;;;;90.13;8.40;;;;;;;;;;4986361;28;20046;-57
2023/11/17 04:44:55;;;;;;;97.55;7.15;;;;;;;;;;4988418;28;20022;-56
2023/11/17 04:47:23;;;;;;;136.68;10.32;;;;;;;;;;4983871;28;20278;-57
2023/11/17 04:49:48;;;;;;;81.60;8.20;;;;;;;;;;4986509;28;20650;-57
2023/11/17 04:52:13;;;;;;;100.75;9.05;;;;;;;;;;4984581;28;20037;-57
2023/11/17 04:54:38;;;;;;;123.30;9.20;;;;;;;;;;4982621;28;20117;-57
2023/11/17 04:57:04;;;;;;;102.60;9.13;;;;;;;;;;4983575;28;20666;-57
2023/11/17 04:59:29;;;;;;;94.45;7.78;;;;;;;;;;4984684;28;20385;-57
2023/11/17 05:01:56;;;;;;;123.18;10.05;;;;;;;;;;4984362;28;20422;-58
2023/11/17 05:04:21;;;;;;;131.73;10.27;;;;;;;;;;4983474;28;20124;-57
2023/11/17 05:06:47;;;;;;;99.45;8.98;;;;;;;;;;4982242;28;20108;-58
2023/11/17 05:09:12;;;;;;;106.38;9.10;;;;;;;;;;4982376;28;20191;-57
2023/11/17 05:11:38;;;;;;;138.25;10.55;;;;;;;;;;4982888;28;20113;-57
2023/11/17 05:14:05;;;;;;;83.88;8.00;;;;;;;;;;4985744;28;20470;-56
2023/11/17 05:16:31;;;;;;;102.57;9.60;;;;;;;;;;4985815;28;20252;-57
2023/11/17 05:18:56;;;;;;;116.47;9.90;;;;;;;;;;4986067;28;20101;-59
2023/11/17 05:21:22;;;;;;;137.18;11.05;;;;;;;;;;4984924;28;20129;-57
2023/11/17 05:23:48;;;;;;;98.13;7.78;;;;;;;;;;4984661;28;20425;-57
2023/11/17 05:26:13;;;;;;;131.38;9.82;;;;;;;;;;4984894;28;20045;-58
2023/11/17 05:28:39;;;;;;;85.63;7.97;;;;;;;;;;4985660;28;20387;-58
2023/11/17 05:31:04;;;;;;;101.10;8.60;;;;;;;;;;4982998;28;20048;-57
2023/11/17 05:33:30;;;;;;;159.63;11.93;;;;;;;;;;4981764;28;20013;-58
2023/11/17 05:35:56;;;;;;;97.88;9.02;;;;;;;;;;4985841;28;20494;-58
2023/11/17 05:38:23;;;;;;;120.80;9.93;;;;;;;;;;4985346;28;20067;-57
2023/11/17 05:40:48;;;;;;;110.38;10.23;;;;;;;;;;4987934;28;20038;-57
2023/11/17 05:43:14;;;;;;;82.30;8.40;;;;;;;;;;4988938;28;20022;-58
2023/11/17 05:45:39;;;;;;;78.72;5.78;;;;;;;;;;4989821;28;20026;-58
2023/11/17 05:48:05;;;;;;;84.95;7.50;;;;;;;;;;4989304;28;20026;-57
2023/11/17 05:50:31;;;;;;;142.50;10.93;;;;;;;;;;4987010;28;20030;-57
2023/11/17 05:52:56;;;;;;;114.22;10.13;;;;;;;;;;4987252;28;20018;-57
2023/11/17 05:55:21;;;;;;;141.55;12.10;;;;;;;;;;4986735;28;20077;-57
2023/11/17 05:57:47;;;;;;;100.88;8.52;;;;;;;;;;4986843;28;20379;-57
2023/11/17 06:00:13;;;;;;;102.10;8.65;;;;;;;;;;4988562;28;20021;-57
2023/11/17 06:02:39;;;;;;;81.47;7.70;;;;;;;;;;4986436;28;20497;-58
2023/11/17 06:05:08;;;;;;;127.75;9.23;;;;;;;;;;4987419;28;20513;-57
2023/11/17 06:07:33;;;;;;;108.38;8.18;;;;;;;;;;4987171;28;20042;-58
2023/11/17 06:09:59;;;;;;;98.60;8.52;;;;;;;;;;4986616;28;20073;-57
2023/11/17 06:12:24;;;;;;;170.05;12.85;;;;;;;;;;4988328;28;20541;-57
2023/11/17 06:14:49;;;;;;;80.80;7.90;;;;;;;;;;4988518;28;20106;-57
2023/11/17 06:17:15;;;;;;;106.15;9.15;;;;;;;;;;4987904;28;20023;-57
2023/11/17 06:19:40;;;;;;;98.28;9.45;;;;;;;;;;4990168;28;20129;-57
2023/11/17 06:22:08;;;;;;;107.07;8.98;;;;;;;;;;4986051;28;20425;-57
2023/11/17 06:24:33;;;;;;;130.43;10.60;;;;;;;;;;4987833;28;20030;-58
2023/11/17 06:26:59;;;;;;;120.43;9.48;;;;;;;;;;4987965;28;20042;-57
2023/11/17 06:29:25;;;;;;;98.18;8.73;;;;;;;;;;4988441;28;20306;-57
2023/11/17 06:31:50;;;;;;;118.22;9.82;;;;;;;;;;4986788;28;20058;-57
2023/11/17 06:34:15;;;;;;;82.97;7.28;;;;;;;;;;4987928;28;20381;-57
2023/11/17 06:36:41;;;;;;;129.55;9.40;;;;;;;;;;4986732;28;20042;-58
2023/11/17 06:39:16;;;;;;;87.55;8.95;;;;;;;;;;4989489;28;20052;-56
2023/11/17 06:41:48;;;;;;;112.38;10.23;;;;;;;;;;4988506;28;20137;-58
2023/11/17 06:44:16;;;;;;;96.95;8.32;;;;;;;;;;4988909;28;20207;-58
2023/11/17 06:46:45;;;;;;;87.75;8.60;;;;;;;;;;4987673;28;20046;-58
2023/11/17 06:49:14;;;;;;;109.38;8.98;;;;;;;;;;4988262;28;20347;-58
2023/11/17 06:51:43;;;;;;;105.10;9.63;;;;;;;;;;4986657;28;20039;-57
2023/11/17 06:54:10;;;;;;;74.55;7.28;;;;;;;;;;4987216;28;20018;-58
2023/11/17 06:56:40;;;;;;;148.70;9.65;;;;;;;;;;4984836;28;20589;-58
2023/11/17 06:59:06;;;;;;;89.93;8.45;;;;;;;;;;4989411;28;20520;-57
2023/11/17 07:01:32;;;;;;;115.00;9.60;;;;;;;;;;4984972;28;20038;-57
2023/11/17 07:03:58;;;;;;;95.97;7.90;;;;;;;;;;4986401;28;20492;-58
2023/11/17 07:06:27;;;;;;;105.22;9.05;;;;;;;;;;4983377;28;20038;-58
2023/11/17 07:08:52;;;;;;;87.90;8.75;;;;;;;;;;4986423;28;20025;-58
2023/11/17 07:11:17;;;;;;;107.55;10.15;;;;;;;;;;4984472;28;20042;-57
2023/11/17 07:13:45;;;;;;;81.88;8.65;;;;;;;;;;4986487;28;20249;-57
2023/11/17 07:16:12;;;;;;;91.95;8.43;;;;;;;;;;4987322;28;20064;-57
2023/11/17 07:18:37;;;;;;;96.82;9.30;;;;;;;;;;4987224;28;20023;-58
2023/11/17 07:21:04;;;;;;;108.38;8.38;;;;;;;;;;4993208;28;20044;-57
2023/11/17 07:23:29;;;;;;;136.80;11.38;;;;;;;;;;5005150;28;20027;-58
2023/11/17 07:25:55;;;;;;;87.85;8.23;;;;;;;;;;5003873;28;20250;-58
2023/11/17 07:28:21;;;;;;;121.10;8.85;;;;;;;;;;5006487;28;20029;-57
2023/11/17 07:30:47;;;;;;;93.40;7.20;;;;;;;;;;5005679;28;20489;-58
2023/11/17 07:33:16;;;;;;;81.05;7.45;;;;;;;;;;5004718;28;20702;-58
2023/11/17 07:35:41;;;;;;;128.40;9.55;;;;;;;;;;4999935;28;20057;-57
2023/11/17 07:38:07;;;;;;;96.93;7.53;;;;;;;;;;5005339;28;20025;-57
2023/11/17 07:40:32;;;;;;;106.25;9.23;;;;;;;;;;5003846;28;20112;-58
2023/11/17 07:42:57;;;;;;;139.68;8.07;;;;;;;;;;5005355;28;20021;-57
2023/11/17 07:45:23;;;;;;;137.30;9.45;;;;;;;;;;5003790;28;20368;-57
2023/11/17 07:47:48;;;;;;;75.07;7.63;;;;;;;;;;5005797;28;20021;-57
2023/11/17 07:50:13;;;;;;;120.10;8.18;;;;;;;;;;5002475;28;20022;-57
2023/11/17 07:52:42;;;;;;;75.22;7.05;;;;;;;;;;5003197;28;20523;-59
2023/11/17 07:55:08;;;;;;;96.68;7.97;;;;;;;;;;5004437;28;20013;-59
2023/11/17 07:57:35;;;;;;;116.55;7.60;;;;;;;;;;5011556;28;20079;-58
2023/11/17 08:00:00;;;;;;;98.25;8.68;;;;;;;;;;5004760;28;20425;-57
2023/11/17 08:02:25;;;;;;;128.52;9.25;;;;;;;;;;5002418;28;20034;-57
2023/11/17 08:04:51;;;;;;;81.03;7.83;;;;;;;;;;5004906;28;20494;-57
2023/11/17 08:07:17;;;;;;;129.77;10.10;;;;;;;;;;5003793;28;20713;-57
2023/11/17 08:09:43;;;;;;;74.70;7.60;;;;;;;;;;5004273;28;20252;-58
2023/11/17 08:12:08;;;;;;;83.78;8.50;;;;;;;;;;5005242;28;20641;-57
2023/11/17 08:14:34;;;;;;;131.55;10.43;;;;;;;;;;5002002;28;20105;-58
2023/11/17 08:17:00;;;;;;;71.28;8.02;;;;;;;;;;5006410;28;20045;-57
2023/11/17 08:19:25;;;;;;;121.43;9.38;;;;;;;;;;5002028;28;20489;-58
2023/11/17 08:21:51;;;;;;;139.68;10.48;;;;;;;;;;5001691;28;20033;-58
2023/11/17 08:24:20;;;;;;;61.40;6.22;;;;;;;;;;5004892;28;20291;-58
2023/11/17 08:26:46;;;;;;;43.95;6.22;;;;;;;;;;5008424;28;20096;-59
2023/11/17 08:29:13;;;;;;;79.93;7.72;;;;;;;;;;5007411;28;20433;-59
2023/11/17 08:31:38;;;;;;;109.28;8.80;;;;;;;;;;5006137;28;20064;-58
2023/11/17 08:34:04;;;;;;;60.28;6.93;;;;;;;;;;5007807;28;20405;-57
2023/11/17 08:36:30;;;;;;;121.13;9.73;;;;;;;;;;5006616;28;20513;-58
2023/11/17 08:38:59;;;;;;;62.85;6.32;;;;;;;;;;5008681;28;20025;-57
2023/11/17 08:41:24;;;;;;;78.43;7.53;;;;;;;;;;5007536;28;20030;-57
2023/11/17 08:43:51;;;;;;;91.55;8.82;;;;;;;;;;5006500;28;20493;-57
2023/11/17 08:46:17;;;;;;;71.50;6.75;;;;;;;;;;5007553;28;20033;-57
2023/11/17 08:48:43;;;;;;;51.42;7.47;;;;;;;;;;5008827;28;20016;-57
2023/11/17 08:51:08;;;;;;;77.20;7.88;;;;;;;;;;5007131;28;20037;-58
2023/11/17 08:53:34;;;;;;;122.60;9.33;;;;;;;;;;5006761;28;20050;-58
2023/11/17 08:56:02;;;;;;;52.75;6.93;;;;;;;;;;5009544;28;20823;-57
2023/11/17 08:58:28;;;;;;;113.65;7.88;;;;;;;;;;5014407;28;20021;-57
2023/11/17 09:00:55;;;;;;;85.63;8.80;;;;;;;;;;5008867;28;20026;-57
2023/11/17 09:03:20;;;;;;;66.47;7.00;;;;;;;;;;5008319;28;20049;-57
2023/11/17 09:05:45;;;;;;;65.80;6.88;;;;;;;;;;5006837;28;20399;-57
2023/11/17 09:08:11;;;;;;;68.43;6.85;;;;;;;;;;5009130;28;20076;-57
2023/11/17 09:10:37;;;;;;;92.32;9.05;;;;;;;;;;5005480;28;20033;-57
2023/11/17 09:13:04;;;;;;;84.18;8.27;;;;;;;;;;5006630;28;20023;-57
2023/11/17 09:15:31;;;;;;;109.80;9.43;;;;;;;;;;5012594;28;20028;-58
2023/11/17 09:17:56;;;;;;;66.75;6.07;;;;;;;;;;5011317;28;20022;-57
2023/11/17 09:20:23;;;;;;;68.90;7.07;;;;;;;;;;5011408;28;20025;-57
2023/11/17 09:22:49;;;;;;;88.82;8.63;;;;;;;;;;5010599;28;20096;-58
2023/11/17 09:25:15;;;;;;;65.38;7.13;;;;;;;;;;5009392;28;20396;-57
2023/11/17 09:27:41;;;;;;;89.80;8.73;;;;;;;;;;5009090;28;20033;-57
2023/11/17 09:30:12;;;;;;;81.75;8.15;;;;;;;;;;5009390;28;20249;-55
2023/11/17 09:32:37;;;;;;;74.63;7.90;;;;;;;;;;5009008;28;20033;-57
2023/11/17 09:35:04;;;;;;;44.67;5.85;;;;;;;;;;5011756;28;20220;-58
2023/11/17 09:37:29;;;;;;;145.80;11.23;;;;;;;;;;5010260;28;20061;-57
2023/11/17 09:39:54;;;;;;;63.07;6.53;;;;;;;;;;5011271;28;20021;-58
2023/11/17 09:42:19;;;;;;;62.17;7.57;;;;;;;;;;5010395;28;20296;-58
2023/11/17 09:44:46;;;;;;;87.10;7.97;;;;;;;;;;5010502;28;20021;-57
2023/11/17 09:47:18;;;;;;;68.60;7.82;;;;;;;;;;5011256;28;20056;-57
2023/11/17 09:49:45;;;;;;;72.97;8.20;;;;;;;;;;5006534;28;20484;-57
2023/11/17 09:52:11;;;;;;;89.32;8.48;;;;;;;;;;5006912;28;20362;-58
2023/11/17 09:54:37;;;;;;;101.47;9.27;;;;;;;;;;5009153;28;20029;-58
2023/11/17 09:57:04;;;;;;;64.35;6.93;;;;;;;;;;5010129;28;20030;-57
2023/11/17 09:59:32;;;;;;;119.53;10.07;;;;;;;;;;5008720;28;20048;-57
2023/11/17 10:01:58;;;;;;;65.70;7.22;;;;;;;;;;5010256;28;20030;-58
2023/11/17 10:04:24;;;;;;;58.45;6.78;;;;;;;;;;5012046;28;20057;-58
2023/11/17 10:06:50;;;;;;;85.07;7.82;;;;;;;;;;5011106;28;20348;-58
2023/11/17 10:09:17;;;;;;;52.13;5.78;;;;;;;;;;5010764;28;20025;-58
2023/11/17 10:11:46;;;;;;;109.55;9.52;;;;;;;;;;5007434;28;20092;-58
2023/11/17 10:14:13;;;;;;;90.97;8.40;;;;;;;;;;5010092;28;20053;-58
2023/11/17 10:16:39;;;;;;;87.82;8.02;;;;;;;;;;5010046;28;20105;-58
2023/11/17 10:19:05;;;;;;;43.55;6.18;;;;;;;;;;5011414;28;20446;-58
2023/11/17 10:21:33;;;;;;;132.15;10.88;;;;;;;;;;5009472;28;20029;-57
2023/11/17 10:23:58;;;;;;;57.42;6.90;;;;;;;;;;5011253;28;20059;-58
2023/11/17 10:26:25;;;;;;;60.40;6.88;;;;;;;;;;5009460;28;20429;-57
2023/11/17 10:28:51;;;;;;;99.72;8.77;;;;;;;;;;5012114;28;20957;-58
2023/11/17 10:31:17;;;;;;;58.17;6.05;;;;;;;;;;5010206;28;20524;-59
2023/11/17 10:33:44;;;;;;;96.70;8.23;;;;;;;;;;5008954;28;20037;-58
2023/11/17 10:36:15;;;;;;;81.40;7.57;;;;;;;;;;5008708;28;20155;-58
2023/11/17 10:38:49;;;;;;;113.90;9.43;;;;;;;;;;5008917;28;20041;-58
2023/11/17 10:41:26;;;;;;;50.35;5.45;;;;;;;;;;5012059;28;20037;-57
2023/11/17 10:43:52;;;;;;;41.92;5.13;;;;;;;;;;5010761;28;20018;-57
2023/11/17 10:46:21;;;;;;;53.83;5.50;;;;;;;;;;5010874;28;20493;-58
2023/11/17 10:48:47;;;;;;;85.90;7.30;;;;;;;;;;5008314;28;20480;-58
2023/11/17 10:51:17;;;;;;;56.83;6.47;;;;;;;;;;5010056;28;20049;-58
2023/11/17 10:53:43;;;;;;;106.97;8.98;;;;;;;;;;5009065;28;20022;-58
2023/11/17 10:56:24;;;;;;;75.80;7.43;;;;;;;;;;5008208;28;20144;-58
2023/11/17 10:58:54;;;;;;;43.30;6.13;;;;;;;;;;5009887;28;20591;-58
2023/11/17 11:01:20;;;;;;;80.10;7.47;;;;;;;;;;5016515;28;20041;-59
2023/11/17 11:03:46;;;;;;;107.20;9.40;;;;;;;;;;5007721;28;20030;-57
2023/11/17 11:06:12;;;;;;;67.90;6.10;;;;;;;;;;5010812;28;20113;-57
2023/11/17 11:08:39;;;;;;;117.47;9.32;;;;;;;;;;5008382;28;20045;-57
2023/11/17 11:11:05;;;;;;;46.40;5.13;;;;;;;;;;5008795;28;20084;-57
2023/11/17 11:13:30;;;;;;;59.05;6.55;;;;;;;;;;5007665;28;20021;-57
2023/11/17 11:16:00;;;;;;;79.32;6.68;;;;;;;;;;5007458;28;20033;-58
2023/11/17 11:18:25;;;;;;;45.58;4.97;;;;;;;;;;5009529;28;20550;-58
2023/11/17 11:20:51;;;;;;;53.60;5.63;;;;;;;;;;5008306;28;20585;-58
2023/11/17 11:23:17;;;;;;;62.53;6.60;;;;;;;;;;5008430;28;20154;-58
2023/11/17 11:25:43;;;;;;;126.00;10.07;;;;;;;;;;5006688;28;20033;-58
2023/11/17 11:28:08;;;;;;;58.65;6.20;;;;;;;;;;5010545;28;20088;-57
2023/11/17 11:30:36;;;;;;;94.18;7.38;;;;;;;;;;5008172;28;20236;-59
2023/11/17 11:33:02;;;;;;;82.05;7.05;;;;;;;;;;5008973;28;20021;-56
2023/11/17 11:35:28;;;;;;;63.70;6.05;;;;;;;;;;5010426;28;20009;-57
2023/11/17 11:37:53;;;;;;;74.85;6.57;;;;;;;;;;5008142;28;20029;-57
2023/11/17 11:40:19;;;;;;;76.90;7.05;;;;;;;;;;5011339;28;20033;-57
2023/11/17 11:42:44;;;;;;;115.90;9.50;;;;;;;;;;5008358;28;20136;-58
2023/11/17 11:45:10;;;;;;;62.03;7.13;;;;;;;;;;5008572;28;20094;-57
2023/11/17 11:47:37;;;;;;;139.75;11.65;;;;;;;;;;5006882;28;20747;-56
2023/11/17 11:50:03;;;;;;;57.25;4.72;;;;;;;;;;5009753;28;20025;-57
2023/11/17 11:52:32;;;;;;;52.75;5.35;;;;;;;;;;5007128;28;20098;-57
2023/11/17 11:54:58;;;;;;;77.78;6.35;;;;;;;;;;5007047;28;20067;-57
2023/11/17 11:57:31;;;;;;;42.67;4.05;;;;;;;;;;5009158;28;20030;-57
2023/11/17 12:00:06;;;;;;;53.95;4.32;;;;;;;;;;5009858;28;20030;-58
2023/11/17 12:02:31;;;;;;;55.83;4.80;;;;;;;;;;5008002;28;20398;-57
2023/11/17 12:05:00;;;;;;;42.10;4.13;;;;;;;;;;5010347;28;20033;-57
2023/11/17 12:07:32;;;;;;;75.40;5.95;;;;;;;;;;5008455;28;20030;-57
2023/11/17 12:10:01;;;;;;;;;;;;;;;;;;5010616;28;20514;-56
2023/11/17 12:12:27;;;;;;;55.63;5.03;;;;;;;;;;5009297;28;20397;-57
2023/11/17 12:14:52;;;;;;;87.50;10.30;;;;;;;;;;5008560;28;20017;-59
2023/11/17 12:17:18;;;;;;;68.00;4.97;;;;;;;;;;5009494;28;20056;-57
2023/11/17 12:19:45;;;;;;;55.10;4.93;;;;;;;;;;5008116;28;20013;-57
2023/11/17 12:22:10;;;;;;;101.45;7.07;;;;;;;;;;5008837;28;20046;-57
2023/11/17 12:24:37;;;;;;;97.18;7.30;;;;;;;;;;5007046;28;20021;-57
2023/11/17 12:27:04;;;;;;;54.97;4.85;;;;;;;;;;5005722;28;20030;-58
2023/11/17 12:29:31;;;;;;;91.88;6.80;;;;;;;;;;5006863;28;20021;-58
2023/11/17 12:31:59;;;;;;;51.08;4.85;;;;;;;;;;5006115;28;20300;-57
2023/11/17 12:34:25;;;;;;;50.50;4.80;;;;;;;;;;5007949;28;20022;-57
2023/11/17 12:36:56;;;;;;;123.78;8.27;;;;;;;;;;5004732;28;20040;-57
2023/11/17 12:39:33;;;;;;;56.30;4.90;;;;;;;;;;5007531;28;20491;-57
2023/11/17 12:41:59;;;;;;;73.85;5.35;;;;;;;;;;5007448;28;20025;-58
2023/11/17 12:44:25;;;;;;;70.90;5.55;;;;;;;;;;5007916;28;20698;-56
2023/11/17 12:46:51;;;;;;;102.28;7.53;;;;;;;;;;5004542;28;20100;-58
2023/11/17 12:49:17;;;;;;;62.38;4.80;;;;;;;;;;5012777;28;20014;-58
2023/11/17 12:51:45;;;;;;;151.83;9.67;;;;;;;;;;5011241;28;20040;-58
2023/11/17 12:54:15;;;;;;;54.45;4.47;;;;;;;;;;5013234;28;20736;-57
2023/11/17 12:56:41;;;;;;;121.85;8.05;;;;;;;;;;5014130;28;20019;-58
2023/11/17 12:59:06;;;;;;;76.32;5.90;;;;;;;;;;5009165;28;20649;-57
2023/11/17 13:01:31;;;;;;;52.45;4.53;;;;;;;;;;5011513;28;20112;-58
2023/11/17 13:03:58;;;;;;;64.00;5.30;;;;;;;;;;5009602;28;20389;-57
2023/11/17 13:06:25;;;;;;;70.25;5.47;;;;;;;;;;5010790;28;20436;-57
2023/11/17 13:08:52;;;;;;;98.78;7.32;;;;;;;;;;5010131;28;20025;-57
2023/11/17 13:11:17;;;;;;;67.10;5.28;;;;;;;;;;5010889;28;20037;-57
2023/11/17 13:13:43;;;;;;;118.63;8.13;;;;;;;;;;5010840;28;20044;-57
2023/11/17 13:16:13;;;;;;;53.47;4.72;;;;;;;;;;5010602;28;20025;-58
2023/11/17 13:18:40;;;;;;;96.13;6.75;;;;;;;;;;5008635;28;20021;-58
2023/11/17 13:21:17;;;;;;;78.28;5.72;;;;;;;;;;5008752;28;20038;-57
2023/11/17 13:23:44;;;;;;;100.55;7.45;;;;;;;;;;5007522;28;20014;-57
2023/11/17 13:26:20;;;;;;;71.35;5.70;;;;;;;;;;5011324;28;20236;-58
2023/11/17 13:28:46;;;;;;;89.75;6.25;;;;;;;;;;5010234;28;20025;-58
2023/11/17 13:31:16;;;;;;;76.45;5.78;;;;;;;;;;5010316;28;20034;-57
2023/11/17 13:33:42;;;;;;;97.93;6.93;;;;;;;;;;5009515;28;20032;-58
2023/11/17 13:36:09;;;;;;;47.83;4.78;;;;;;;;;;5010744;28;20022;-58
2023/11/17 13:38:54;;;;;;;74.75;5.68;;;;;;;;;;5011096;28;20021;-59
2023/11/17 13:41:20;;;;;;;65.07;4.88;;;;;;;;;;5002901;28;20116;-59
2023/11/17 13:43:47;;;;;;;138.02;9.25;;;;;;;;;;5009198;28;20418;-56
2023/11/17 13:46:13;;;;;;;69.65;5.63;;;;;;;;;;5010545;28;20034;-59
2023/11/17 13:48:42;;;;;;;45.00;3.90;;;;;;;;;;5009952;28;20185;-59
2023/11/17 13:51:08;;;;;;;82.20;6.35;;;;;;;;;;5011153;28;20067;-59
2023/11/17 13:53:33;;;;;;;77.32;5.72;;;;;;;;;;5009050;28;20030;-58
2023/11/17 13:55:59;;;;;;;46.22;4.03;;;;;;;;;;5008026;28;20268;-59
2023/11/17 13:58:25;;;;;;;67.18;5.47;;;;;;;;;;5010509;28;20033;-60
2023/11/17 14:00:51;;;;;;;71.05;5.35;;;;;;;;;;5010368;28;20048;-58
2023/11/17 14:03:16;;;;;;;51.65;4.38;;;;;;;;;;5010283;28;20044;-58
2023/11/17 14:05:42;;;;;;;93.70;6.57;;;;;;;;;;5010123;28;20042;-56
2023/11/17 14:08:07;;;;;;;82.47;6.22;;;;;;;;;;5009714;28;20033;-58
2023/11/17 14:10:33;;;;;;;56.75;5.10;;;;;;;;;;5010064;28;20115;-58
2023/11/17 14:12:58;;;;;;;57.10;4.78;;;;;;;;;;5012331;28;20485;-57
2023/11/17 14:15:24;;;;;;;96.80;6.53;;;;;;;;;;5008265;28;20025;-57
2023/11/17 14:17:49;;;;;;;118.47;8.30;;;;;;;;;;5009879;28;20021;-58
2023/11/17 14:20:15;;;;;;;75.93;5.72;;;;;;;;;;5011049;28;20195;-57